Time;durP1;ratioP1;P1;durP2;ratioP2;P2;SDS_P1;SDS_P2;PMS_P1;PMS_P2;Temp;Humidity;BMP_temperature;BMP_pressure;BME280_temperature;BME280_humidity;BME280_pressure;Samples;Min_cycle;Max_cycle;Signal;HPM_P1;HPM_P2
2021/05/10 00:00:09;;;;;;;6.07;1.33;;;15.00;99.90;;;;;;5054765;28;20029;-84
2021/05/10 00:02:34;;;;;;;3.80;1.20;;;15.00;99.90;;;;;;5054593;28;20067;-84
2021/05/10 00:05:00;;;;;;;5.47;1.30;;;15.10;99.90;;;;;;5054638;28;20025;-84
2021/05/10 00:07:26;;;;;;;2.88;1.17;;;15.30;99.90;;;;;;5036804;28;20029;-84
2021/05/10 00:09:52;;;;;;;1.83;1.20;;;15.50;99.90;;;;;;5036722;28;20024;-84
2021/05/10 00:12:17;;;;;;;4.97;1.42;;;15.80;99.90;;;;;;5036575;28;20112;-84
2021/05/10 00:14:44;;;;;;;2.03;0.98;;;16.00;99.90;;;;;;5054735;28;20029;-84
2021/05/10 00:17:11;;;;;;;4.40;1.30;;;16.10;99.90;;;;;;5053875;28;20063;-84
2021/05/10 00:19:37;;;;;;;3.25;1.27;;;16.10;99.90;;;;;;5054054;28;20487;-84
2021/05/10 00:22:03;;;;;;;2.75;1.25;;;16.20;99.90;;;;;;5036499;28;20025;-84
2021/05/10 00:24:29;;;;;;;3.88;1.23;;;16.20;99.90;;;;;;5054203;28;20027;-84
2021/05/10 00:26:55;;;;;;;2.47;1.05;;;16.20;99.90;;;;;;5036411;28;20107;-84
2021/05/10 00:29:21;;;;;;;7.47;1.70;;;16.10;99.90;;;;;;5036301;28;20067;-84
2021/05/10 00:31:47;;;;;;;6.63;1.35;;;16.10;99.90;;;;;;5054392;28;20028;-84
2021/05/10 00:34:13;;;;;;;1.67;1.08;;;16.00;99.90;;;;;;5054120;28;20025;-84
2021/05/10 00:36:39;;;;;;;2.10;1.20;;;15.90;99.90;;;;;;5054046;28;20033;-84
2021/05/10 00:39:06;;;;;;;1.33;0.95;;;15.80;99.90;;;;;;5036118;28;20099;-84
2021/05/10 00:41:32;;;;;;;2.25;1.17;;;15.90;99.90;;;;;;5053914;28;20070;-84
2021/05/10 00:43:58;;;;;;;4.25;1.20;;;15.80;99.90;;;;;;5053901;28;20021;-84
2021/05/10 00:46:24;;;;;;;3.72;1.02;;;15.70;99.90;;;;;;5035838;28;20025;-84
2021/05/10 00:48:50;;;;;;;5.32;1.33;;;15.80;99.90;;;;;;5053690;28;20510;-84
2021/05/10 00:51:16;;;;;;;4.20;1.40;;;15.70;99.90;;;;;;5035866;28;20068;-84
2021/05/10 00:53:41;;;;;;;4.80;1.30;;;15.70;99.90;;;;;;5035918;28;20029;-84
2021/05/10 00:56:07;;;;;;;4.72;1.23;;;15.60;99.90;;;;;;5035920;28;20036;-84
2021/05/10 00:58:33;;;;;;;3.00;1.42;;;15.50;99.90;;;;;;5035826;28;20029;-84
2021/05/10 01:00:59;;;;;;;3.40;1.20;;;15.30;99.90;;;;;;5035715;28;20082;-84
2021/05/10 01:03:26;;;;;;;2.83;1.13;;;15.30;99.90;;;;;;5053678;28;20021;-84
2021/05/10 01:05:52;;;;;;;2.05;1.05;;;15.30;99.90;;;;;;5053522;28;20365;-84
2021/05/10 01:08:17;;;;;;;2.53;1.52;;;15.20;99.90;;;;;;5053527;28;20071;-84
2021/05/10 01:10:45;;;;;;;2.70;1.33;;;15.10;99.90;;;;;;5035712;28;20033;-84
2021/05/10 01:13:11;;;;;;;4.05;1.42;;;15.00;99.90;;;;;;5035822;28;20067;-84
2021/05/10 01:15:39;;;;;;;3.92;1.40;;;15.00;99.90;;;;;;5035654;28;20029;-84
2021/05/10 01:18:05;;;;;;;4.55;1.42;;;14.90;99.90;;;;;;5053375;28;20476;-84
2021/05/10 01:20:33;;;;;;;3.97;1.30;;;14.80;99.90;;;;;;5035449;28;20032;-84
2021/05/10 01:23:00;;;;;;;5.57;1.20;;;14.80;99.90;;;;;;5053461;28;20025;-84
2021/05/10 01:25:31;;;;;;;3.63;1.58;;;14.80;99.90;;;;;;5053467;28;20025;-84
2021/05/10 01:27:58;;;;;;;4.78;2.10;;;14.80;99.90;;;;;;5053659;28;20017;-84
2021/05/10 01:30:33;;;;;;;4.03;1.60;;;14.60;99.90;;;;;;5035287;28;20021;-84
2021/05/10 01:33:00;;;;;;;5.00;1.95;;;14.60;99.90;;;;;;5035541;28;20385;-84
2021/05/10 01:35:40;;;;;;;4.22;2.20;;;14.60;99.90;;;;;;5053218;28;20025;-84
2021/05/10 01:38:07;;;;;;;8.57;2.05;;;14.50;99.90;;;;;;5035366;28;20021;-84
2021/05/10 01:40:34;;;;;;;4.97;1.90;;;14.40;99.90;;;;;;5035244;28;20052;-84
2021/05/10 01:43:00;;;;;;;5.45;1.77;;;14.40;99.90;;;;;;5035184;28;20388;-84
2021/05/10 01:45:26;;;;;;;5.03;1.60;;;14.40;99.90;;;;;;5035321;28;20464;-84
2021/05/10 01:48:00;;;;;;;4.85;1.60;;;14.30;99.90;;;;;;5052774;28;20072;-84
2021/05/10 01:50:25;;;;;;;4.65;1.85;;;14.30;99.90;;;;;;5053101;28;20017;-84
2021/05/10 01:52:51;;;;;;;6.18;1.70;;;14.30;99.90;;;;;;5035149;28;20029;-84
2021/05/10 01:55:17;;;;;;;5.18;1.70;;;14.20;99.90;;;;;;5035133;28;20416;-84
2021/05/10 01:57:55;;;;;;;6.15;1.60;;;14.20;99.90;;;;;;5053100;28;20060;-84
2021/05/10 02:00:27;;;;;;;3.85;1.55;;;14.10;99.90;;;;;;5035185;28;20504;-85
2021/05/10 02:03:09;;;;;;;7.20;1.75;;;14.10;99.90;;;;;;5053018;28;20029;-84
2021/05/10 02:05:35;;;;;;;3.80;1.58;;;14.20;99.90;;;;;;5052986;28;20465;-84
2021/05/10 02:08:04;;;;;;;2.78;1.27;;;14.20;99.90;;;;;;5052905;28;20021;-84
2021/05/10 02:10:32;;;;;;;3.88;1.40;;;14.30;99.90;;;;;;5052959;28;20511;-84
2021/05/10 02:13:04;;;;;;;4.72;1.33;;;14.40;99.90;;;;;;5035032;28;20519;-84
2021/05/10 02:15:53;;;;;;;3.60;1.30;;;14.40;99.90;;;;;;5034950;28;20472;-84
2021/05/10 02:18:21;;;;;;;3.17;1.50;;;14.30;99.90;;;;;;5034919;28;20044;-84
2021/05/10 02:20:48;;;;;;;2.03;1.30;;;14.20;99.90;;;;;;5052779;28;20035;-84
2021/05/10 02:23:26;;;;;;;2.50;1.38;;;14.20;99.90;;;;;;5034877;28;20112;-84
2021/05/10 02:25:57;;;;;;;1.77;1.20;;;14.30;99.90;;;;;;5052762;28;20032;-84
2021/05/10 02:28:24;;;;;;;3.78;1.20;;;14.30;99.90;;;;;;5034842;28;20128;-84
2021/05/10 02:30:51;;;;;;;4.22;1.35;;;14.20;99.90;;;;;;5052704;28;20021;-84
2021/05/10 02:33:20;;;;;;;3.22;1.40;;;14.00;99.90;;;;;;5034805;28;20025;-83
2021/05/10 02:35:47;;;;;;;4.82;1.60;;;13.90;99.90;;;;;;5034793;28;20025;-84
2021/05/10 02:38:14;;;;;;;2.45;1.55;;;13.80;99.90;;;;;;5052609;28;20431;-84
2021/05/10 02:40:41;;;;;;;2.28;1.45;;;13.70;99.90;;;;;;5034979;28;20048;-84
2021/05/10 02:43:07;;;;;;;3.15;1.40;;;13.70;99.90;;;;;;5056197;28;20051;-84
2021/05/10 02:45:33;;;;;;;2.65;1.40;;;13.70;99.90;;;;;;5038196;28;20021;-84
2021/05/10 02:47:58;;;;;;;3.95;1.50;;;13.80;99.90;;;;;;5038015;28;20124;-84
2021/05/10 02:50:27;;;;;;;1.85;1.17;;;13.70;99.90;;;;;;5056064;28;20049;-84
2021/05/10 02:52:53;;;;;;;6.38;1.30;;;13.60;99.90;;;;;;5038200;28;20025;-83
2021/05/10 02:55:20;;;;;;;3.33;1.40;;;13.50;99.90;;;;;;5056001;28;20057;-84
2021/05/10 02:57:50;;;;;;;3.50;1.33;;;13.60;99.90;;;;;;5038086;28;20021;-84
2021/05/10 03:00:18;;;;;;;3.00;1.08;;;13.70;99.90;;;;;;5038128;28;20025;-84
2021/05/10 03:02:44;;;;;;;2.75;1.25;;;13.90;99.90;;;;;;5056161;28;20025;-84
2021/05/10 03:05:12;;;;;;;3.50;1.30;;;13.90;99.90;;;;;;5055869;28;20391;-84
2021/05/10 03:07:38;;;;;;;2.22;1.30;;;13.70;99.90;;;;;;5037895;28;20392;-84
2021/05/10 03:10:06;;;;;;;4.47;1.40;;;13.80;99.90;;;;;;5037830;28;20025;-84
2021/05/10 03:12:32;;;;;;;4.32;1.30;;;13.60;99.90;;;;;;5055913;28;20392;-84
2021/05/10 03:14:58;;;;;;;2.90;1.58;;;13.70;99.90;;;;;;5037728;28;20025;-85
2021/05/10 03:17:23;;;;;;;3.80;1.40;;;13.60;99.90;;;;;;5037676;28;20443;-84
2021/05/10 03:19:49;;;;;;;4.00;1.30;;;13.50;99.90;;;;;;5037680;28;20075;-84
2021/05/10 03:22:15;;;;;;;3.53;1.35;;;13.50;99.90;;;;;;5055445;28;20379;-83
2021/05/10 03:24:40;;;;;;;6.05;1.70;;;13.60;99.90;;;;;;5037601;28;20024;-84
2021/05/10 03:27:06;;;;;;;2.42;1.38;;;13.60;99.90;;;;;;5037545;28;20476;-84
2021/05/10 03:29:32;;;;;;;2.25;1.60;;;13.70;99.90;;;;;;5037552;28;20017;-84
2021/05/10 03:31:58;;;;;;;5.75;1.58;;;13.90;99.90;;;;;;5055305;28;20079;-83
2021/05/10 03:34:23;;;;;;;5.38;1.60;;;14.00;99.90;;;;;;5037388;28;20025;-84
2021/05/10 03:36:49;;;;;;;4.80;1.40;;;14.10;99.90;;;;;;5037656;28;20040;-84
2021/05/10 03:39:15;;;;;;;2.70;1.55;;;14.00;99.90;;;;;;5037681;28;20048;-84
2021/05/10 03:41:40;;;;;;;2.45;1.50;;;14.10;99.90;;;;;;5055434;28;20025;-84
2021/05/10 03:44:06;;;;;;;7.97;1.73;;;14.00;99.90;;;;;;5037277;28;20025;-84
2021/05/10 03:46:32;;;;;;;6.85;1.38;;;14.00;99.90;;;;;;5055118;28;20095;-84
2021/05/10 03:48:57;;;;;;;7.95;1.63;;;13.90;99.90;;;;;;5037104;28;20045;-84
2021/05/10 03:51:23;;;;;;;4.97;1.38;;;13.90;99.90;;;;;;5037127;28;20044;-84
2021/05/10 03:53:49;;;;;;;3.22;1.20;;;13.80;99.90;;;;;;5054858;28;20032;-84
2021/05/10 03:56:14;;;;;;;3.33;1.23;;;13.80;99.90;;;;;;5037012;28;20389;-84
2021/05/10 03:58:40;;;;;;;4.32;1.60;;;13.90;99.90;;;;;;5036972;28;20033;-84
2021/05/10 04:01:09;;;;;;;4.80;1.52;;;13.90;99.90;;;;;;5055208;28;20035;-84
2021/05/10 04:03:43;;;;;;;4.03;1.40;;;14.00;99.90;;;;;;5036816;28;20033;-84
2021/05/10 04:06:28;;;;;;;4.03;1.60;;;14.10;99.90;;;;;;5054706;28;20476;-84
2021/05/10 04:14:26;;;;;;;3.08;1.65;;;14.40;99.90;;;;;;5054598;28;20082;-84
2021/05/10 04:16:51;;;;;;;3.85;1.40;;;14.50;99.90;;;;;;5037167;28;20032;-84
2021/05/10 04:19:17;;;;;;;4.28;1.50;;;14.60;99.90;;;;;;5054408;28;20365;-84
2021/05/10 04:21:44;;;;;;;7.15;1.52;;;14.60;99.90;;;;;;5054297;28;20029;-84
2021/05/10 04:24:09;;;;;;;4.90;1.20;;;14.60;99.90;;;;;;5054604;28;20472;-84
2021/05/10 04:26:35;;;;;;;2.03;1.30;;;14.60;99.90;;;;;;5054266;28;20071;-84
2021/05/10 04:29:01;;;;;;;4.40;1.20;;;14.60;99.90;;;;;;5054250;28;20092;-84
2021/05/10 04:31:26;;;;;;;7.03;1.33;;;14.60;99.90;;;;;;5036324;28;20442;-84
2021/05/10 04:33:52;;;;;;;8.32;1.50;;;14.60;99.90;;;;;;5036293;28;20029;-84
2021/05/10 04:36:18;;;;;;;3.30;1.30;;;14.70;99.90;;;;;;5054097;28;20455;-84
2021/05/10 04:38:44;;;;;;;3.05;1.20;;;14.70;99.90;;;;;;5036255;28;20028;-84
2021/05/10 04:41:10;;;;;;;1.73;1.23;;;14.80;99.90;;;;;;5036011;28;20032;-84
2021/05/10 04:43:37;;;;;;;7.38;1.42;;;14.90;99.90;;;;;;5036098;28;20021;-84
2021/05/10 04:46:02;;;;;;;6.13;1.50;;;14.90;99.90;;;;;;5053836;28;20079;-84
2021/05/10 04:48:28;;;;;;;3.75;1.52;;;14.80;99.90;;;;;;5053818;28;20045;-84
2021/05/10 04:50:55;;;;;;;9.20;1.80;;;14.90;99.90;;;;;;5053820;28;20025;-84
2021/05/10 04:53:20;;;;;;;3.72;1.30;;;14.90;99.90;;;;;;5053784;28;20031;-84
2021/05/10 04:55:46;;;;;;;3.60;1.33;;;14.90;99.90;;;;;;5035877;28;20462;-84
2021/05/10 04:58:12;;;;;;;2.30;1.23;;;14.90;99.90;;;;;;5035814;28;20393;-84
2021/05/10 05:00:38;;;;;;;5.13;1.42;;;15.00;99.90;;;;;;5035722;28;20447;-84
2021/05/10 05:03:04;;;;;;;4.97;1.50;;;15.00;99.90;;;;;;5035738;28;20388;-84
2021/05/10 05:05:29;;;;;;;5.55;1.60;;;14.90;99.90;;;;;;5035287;28;20025;-84
2021/05/10 05:07:55;;;;;;;5.82;1.40;;;15.00;99.90;;;;;;5035678;28;20389;-84
2021/05/10 05:10:21;;;;;;;4.65;1.45;;;14.90;99.90;;;;;;5035621;28;20018;-84
2021/05/10 05:12:50;;;;;;;4.22;1.50;;;14.80;99.90;;;;;;5053491;28;20030;-84
2021/05/10 05:15:17;;;;;;;4.03;1.33;;;14.90;99.90;;;;;;5035522;28;20024;-84
2021/05/10 05:17:43;;;;;;;2.72;1.45;;;14.90;99.90;;;;;;5035601;28;20115;-84
2021/05/10 05:20:10;;;;;;;4.60;1.25;;;14.90;99.90;;;;;;5035330;28;20085;-84
2021/05/10 05:22:36;;;;;;;3.95;1.30;;;15.00;99.90;;;;;;5035339;28;20051;-84
2021/05/10 05:25:22;;;;;;;3.78;1.48;;;15.00;99.90;;;;;;5035483;28;20140;-84
2021/05/10 05:27:48;;;;;;;4.55;1.55;;;15.10;99.90;;;;;;5034040;28;20024;-84
2021/05/10 05:30:14;;;;;;;4.63;1.88;;;15.10;99.90;;;;;;5035356;28;20472;-84
2021/05/10 05:32:39;;;;;;;3.72;1.67;;;15.10;99.90;;;;;;5035281;28;20491;-84
2021/05/10 05:35:06;;;;;;;6.93;2.10;;;15.10;99.90;;;;;;5035291;28;20075;-84
2021/05/10 05:37:32;;;;;;;7.82;2.22;;;15.20;99.90;;;;;;5035364;28;20399;-84
2021/05/10 05:39:57;;;;;;;11.48;2.70;;;15.20;99.90;;;;;;5053406;28;20025;-84
2021/05/10 05:42:24;;;;;;;8.60;2.20;;;15.20;99.90;;;;;;5053077;28;20473;-84
2021/05/10 05:44:53;;;;;;;6.32;2.00;;;15.20;99.90;;;;;;5035198;28;20036;-84
2021/05/10 05:47:36;;;;;;;5.60;2.10;;;15.20;99.90;;;;;;5034662;28;20361;-84
2021/05/10 05:50:02;;;;;;;4.47;1.95;;;15.20;99.90;;;;;;5053000;28;20029;-84
2021/05/10 05:52:28;;;;;;;3.45;1.58;;;15.30;99.90;;;;;;5053003;28;20025;-84
2021/05/10 05:54:54;;;;;;;5.75;1.75;;;15.40;99.90;;;;;;5053012;28;20059;-84
2021/05/10 05:57:20;;;;;;;3.30;1.45;;;15.40;99.90;;;;;;5035139;28;20029;-83
2021/05/10 05:59:46;;;;;;;4.07;1.60;;;15.50;99.90;;;;;;5053240;28;20028;-84
2021/05/10 06:02:12;;;;;;;6.10;1.40;;;15.50;99.90;;;;;;5053220;28;20021;-84
2021/05/10 06:04:37;;;;;;;3.58;1.50;;;15.60;99.90;;;;;;5035283;28;20032;-84
2021/05/10 06:07:03;;;;;;;2.92;1.50;;;15.60;99.90;;;;;;5035165;28;20085;-84
2021/05/10 06:09:29;;;;;;;5.05;1.60;;;15.70;99.90;;;;;;5035114;28;20021;-84
2021/05/10 06:11:55;;;;;;;8.32;1.80;;;15.70;99.90;;;;;;5052961;28;20100;-84
2021/05/10 06:14:21;;;;;;;76.68;5.70;;;15.70;99.90;;;;;;5053065;28;20158;-84
2021/05/10 06:16:47;;;;;;;22.02;2.80;;;15.80;99.90;;;;;;5055038;28;20032;-84
2021/05/10 06:19:13;;;;;;;10.15;2.20;;;15.90;99.90;;;;;;5038860;28;20029;-84
2021/05/10 06:21:42;;;;;;;5.82;2.03;;;16.00;99.90;;;;;;5056550;28;20107;-84
2021/05/10 06:24:08;;;;;;;11.00;2.25;;;16.00;99.90;;;;;;5056853;28;20034;-84
2021/05/10 06:26:33;;;;;;;13.50;2.28;;;16.10;99.90;;;;;;5038618;28;20024;-84
2021/05/10 06:28:59;;;;;;;9.55;2.40;;;16.20;99.90;;;;;;5056490;28;20388;-84
2021/05/10 06:31:25;;;;;;;4.55;1.73;;;16.30;99.90;;;;;;5038820;28;20033;-84
2021/05/10 06:33:50;;;;;;;5.30;1.63;;;16.40;99.90;;;;;;5038560;28;20028;-83
2021/05/10 06:36:16;;;;;;;4.30;1.77;;;16.60;99.90;;;;;;5056340;28;20021;-84
2021/05/10 06:38:42;;;;;;;6.38;1.92;;;16.70;99.90;;;;;;5038476;28;20151;-84
2021/05/10 06:41:07;;;;;;;5.43;1.65;;;16.90;99.90;;;;;;5056495;28;20047;-84
2021/05/10 06:43:33;;;;;;;6.13;1.83;;;17.00;99.90;;;;;;5056223;28;20106;-84
2021/05/10 06:45:59;;;;;;;8.20;1.80;;;17.00;99.90;;;;;;5038208;28;20021;-84
2021/05/10 06:48:33;;;;;;;3.40;1.50;;;17.10;99.90;;;;;;5056042;28;20060;-84
2021/05/10 06:50:59;;;;;;;;;;;17.20;99.90;;;;;;5038602;28;20206;-84
2021/05/10 06:53:26;;;;;;;6.32;2.00;;;17.30;99.90;;;;;;5038121;28;19904;-84
2021/05/10 06:55:54;;;;;;;4.18;1.60;;;17.30;99.90;;;;;;5055989;28;20441;-84
2021/05/10 06:58:20;;;;;;;7.53;1.70;;;17.30;99.90;;;;;;5055965;28;20025;-84
2021/05/10 07:00:46;;;;;;;4.53;1.52;;;17.40;99.90;;;;;;5037953;28;20025;-84
2021/05/10 07:03:12;;;;;;;6.13;1.83;;;17.40;99.90;;;;;;5038013;28;20027;-83
2021/05/10 07:05:38;;;;;;;3.83;1.63;;;17.50;99.90;;;;;;5038164;28;20016;-84
2021/05/10 07:08:12;;;;;;;4.93;1.60;;;17.60;99.90;;;;;;5038140;28;20036;-83
2021/05/10 07:10:37;;;;;;;10.60;1.63;;;17.80;99.90;;;;;;5037954;28;20029;-83
2021/05/10 07:13:03;;;;;;;5.88;1.40;;;18.00;99.90;;;;;;5055654;28;20025;-84
2021/05/10 07:15:30;;;;;;;4.75;1.40;;;18.00;99.90;;;;;;5055621;28;20150;-84
2021/05/10 07:18:02;;;;;;;4.85;1.40;;;18.10;99.90;;;;;;5037690;28;20504;-83
2021/05/10 07:20:28;;;;;;;3.88;1.40;;;18.10;99.90;;;;;;5038149;28;20156;-83
2021/05/10 07:22:55;;;;;;;3.50;1.13;;;18.30;99.90;;;;;;5055675;28;20107;-84
2021/05/10 07:25:21;;;;;;;4.60;1.33;;;18.30;99.90;;;;;;5037616;28;20116;-83
2021/05/10 07:27:47;;;;;;;5.18;1.60;;;18.60;99.90;;;;;;5055285;28;20103;-83
2021/05/10 07:30:13;;;;;;;4.28;1.13;;;18.80;99.90;;;;;;5037438;28;20108;-83
2021/05/10 07:32:38;;;;;;;4.15;1.10;;;19.00;99.90;;;;;;5055569;28;20029;-82
2021/05/10 07:35:04;;;;;;;1.98;1.10;;;19.00;99.90;;;;;;5037379;28;20028;-84
2021/05/10 07:37:30;;;;;;;3.78;1.00;;;19.30;99.90;;;;;;5055197;28;20056;-83
2021/05/10 07:39:56;;;;;;;3.15;1.23;;;19.40;99.90;;;;;;5037321;28;20071;-83
2021/05/10 07:42:21;;;;;;;5.10;1.38;;;19.60;99.90;;;;;;5037180;28;20036;-83
2021/05/10 07:44:47;;;;;;;4.38;1.27;;;19.70;99.90;;;;;;5055054;28;20385;-83
2021/05/10 07:47:13;;;;;;;6.80;1.23;;;19.60;99.90;;;;;;5037234;28;20028;-83
2021/05/10 07:49:38;;;;;;;4.85;1.25;;;19.50;99.90;;;;;;5037060;28;20033;-83
2021/05/10 07:52:04;;;;;;;6.13;1.67;;;19.30;99.90;;;;;;5037082;28;20116;-83
2021/05/10 07:54:30;;;;;;;5.50;1.25;;;19.10;99.90;;;;;;5036999;28;20051;-83
2021/05/10 07:56:56;;;;;;;9.48;1.60;;;19.00;99.90;;;;;;5054871;28;20025;-83
2021/05/10 07:59:22;;;;;;;6.93;1.35;;;19.10;99.90;;;;;;5036914;28;20032;-83
2021/05/10 08:01:49;;;;;;;4.05;1.25;;;19.30;99.90;;;;;;5054705;28;20115;-83
2021/05/10 08:04:15;;;;;;;7.85;1.40;;;19.60;99.90;;;;;;5036854;28;20029;-83
2021/05/10 08:06:40;;;;;;;2.88;1.30;;;20.00;99.90;;;;;;5036896;28;20498;-83
2021/05/10 08:09:06;;;;;;;3.67;1.25;;;20.20;99.90;;;;;;5036764;28;20020;-82
2021/05/10 08:11:32;;;;;;;2.90;1.27;;;20.30;99.90;;;;;;5036739;28;20025;-83
2021/05/10 08:13:58;;;;;;;5.72;1.02;;;20.30;99.90;;;;;;5036626;28;20082;-83
2021/05/10 08:16:24;;;;;;;5.85;1.48;;;20.20;99.90;;;;;;5036977;28;20033;-83
2021/05/10 08:18:50;;;;;;;9.73;1.50;;;20.20;99.90;;;;;;5054558;28;20036;-83
2021/05/10 08:21:15;;;;;;;2.80;1.17;;;20.20;99.90;;;;;;5036423;28;20049;-84
2021/05/10 08:23:44;;;;;;;4.93;1.20;;;20.10;99.90;;;;;;5036460;28;20067;-83
2021/05/10 08:26:10;;;;;;;4.68;1.10;;;19.90;99.90;;;;;;5054229;28;20095;-84
2021/05/10 08:28:36;;;;;;;3.33;1.02;;;19.80;99.90;;;;;;5036414;28;20021;-83
2021/05/10 08:31:02;;;;;;;5.97;1.55;;;19.60;99.90;;;;;;5054460;28;20376;-83
2021/05/10 08:33:29;;;;;;;4.82;1.60;;;19.50;99.90;;;;;;5036223;28;20021;-84
2021/05/10 08:35:55;;;;;;;3.47;1.35;;;19.40;99.90;;;;;;5035887;28;20084;-83
2021/05/10 08:38:21;;;;;;;2.88;1.15;;;19.40;99.90;;;;;;5035526;28;20029;-83
2021/05/10 08:40:50;;;;;;;3.25;1.40;;;19.40;99.90;;;;;;5035822;28;20442;-84
2021/05/10 08:43:26;;;;;;;4.97;1.70;;;19.60;99.90;;;;;;5054024;28;20052;-83
2021/05/10 08:45:57;;;;;;;5.43;1.50;;;20.00;99.90;;;;;;5036041;28;20021;-84
2021/05/10 08:48:24;;;;;;;3.65;1.50;;;20.30;99.90;;;;;;5022686;28;20048;-84
2021/05/10 08:50:50;;;;;;;3.85;1.10;;;20.50;99.90;;;;;;5014366;28;20026;-84
2021/05/10 08:53:30;;;;;;;3.28;1.52;;;20.50;99.90;;;;;;5014067;28;20026;-84
2021/05/10 08:55:56;;;;;;;3.95;1.42;;;20.50;99.90;;;;;;5012880;28;20029;-84
2021/05/10 08:58:21;;;;;;;6.40;1.67;;;20.40;99.90;;;;;;5012922;28;20501;-85
2021/05/10 09:00:51;;;;;;;6.57;1.42;;;20.40;99.90;;;;;;5012677;28;20504;-85
2021/05/10 09:03:17;;;;;;;7.88;1.40;;;20.30;99.90;;;;;;5014059;28;20025;-85
2021/05/10 09:05:51;;;;;;;3.83;1.40;;;20.40;99.90;;;;;;5012717;28;20109;-84
2021/05/10 09:08:17;;;;;;;3.08;1.20;;;20.60;99.90;;;;;;5014053;28;20456;-85
2021/05/10 09:11:05;;;;;;;5.05;1.10;;;20.80;99.90;;;;;;5012722;28;20022;-84
2021/05/10 09:13:44;;;;;;;3.80;1.40;;;20.90;99.90;;;;;;5012655;28;20072;-84
2021/05/10 09:16:11;;;;;;;2.22;1.40;;;21.10;99.90;;;;;;5012732;28;20026;-84
2021/05/10 09:18:38;;;;;;;2.40;1.20;;;21.20;99.90;;;;;;5012576;28;20133;-85
2021/05/10 09:21:13;;;;;;;4.03;1.27;;;21.50;99.90;;;;;;5012484;28;20026;-85
2021/05/10 09:23:38;;;;;;;10.88;1.60;;;21.80;99.90;;;;;;5013730;28;20056;-85
2021/05/10 09:26:04;;;;;;;6.18;1.63;;;22.00;99.90;;;;;;5012524;28;20053;-84
2021/05/10 09:28:37;;;;;;;5.68;1.60;;;22.20;99.90;;;;;;5012494;28;20121;-84
2021/05/10 09:31:06;;;;;;;6.90;1.70;;;22.00;99.90;;;;;;5013980;28;20026;-85
2021/05/10 09:33:32;;;;;;;7.10;1.77;;;22.30;99.90;;;;;;5013559;28;20385;-84
2021/05/10 09:36:02;;;;;;;5.38;1.50;;;22.40;99.90;;;;;;5012315;28;20397;-84
2021/05/10 09:38:29;;;;;;;6.15;1.65;;;22.40;99.90;;;;;;5013834;28;20025;-84
2021/05/10 09:40:57;;;;;;;7.70;1.70;;;22.70;99.90;;;;;;5012168;28;20026;-84
2021/05/10 09:43:25;;;;;;;5.25;1.35;;;22.70;99.90;;;;;;5013755;28;20025;-84
2021/05/10 09:45:59;;;;;;;4.57;1.40;;;22.60;99.90;;;;;;5012108;28;20396;-84
2021/05/10 09:48:35;;;;;;;7.28;1.75;;;22.00;99.90;;;;;;5012134;28;20077;-83
2021/05/10 09:51:05;;;;;;;2.70;1.33;;;22.10;99.90;;;;;;5014804;28;20030;-83
2021/05/10 09:53:58;;;;;;;5.97;1.38;;;22.10;99.90;;;;;;5016226;28;20049;-83
2021/05/10 09:59:12;;;;;;;3.08;1.30;;;22.20;99.90;;;;;;5017663;28;20032;-83
2021/05/10 10:01:46;;;;;;;3.53;1.35;;;22.10;99.90;;;;;;5017325;28;20388;-85
2021/05/10 10:04:13;;;;;;;4.70;1.60;;;21.80;99.90;;;;;;5016076;28;20018;-84
2021/05/10 10:06:39;;;;;;;6.20;1.50;;;21.60;99.90;;;;;;5017271;28;20385;-83
2021/05/10 10:09:05;;;;;;;3.63;1.30;;;21.50;99.90;;;;;;5017191;28;20097;-84
2021/05/10 10:11:32;;;;;;;7.90;1.30;;;21.20;99.90;;;;;;5017382;28;20034;-83
2021/05/10 10:13:58;;;;;;;2.72;1.10;;;21.10;99.90;;;;;;5017283;28;20489;-84
2021/05/10 10:16:26;;;;;;;4.40;1.20;;;21.20;99.90;;;;;;5015842;28;20022;-84
2021/05/10 10:18:53;;;;;;;3.25;1.33;;;21.30;99.90;;;;;;5015740;28;20026;-83
2021/05/10 10:21:21;;;;;;;4.68;1.33;;;21.20;99.90;;;;;;5015635;28;20033;-83
2021/05/10 10:24:02;;;;;;;3.85;1.30;;;21.20;99.90;;;;;;5015599;28;20021;-84
2021/05/10 10:26:29;;;;;;;6.50;1.35;;;21.10;99.90;;;;;;5015669;28;20497;-84
2021/05/10 10:28:56;;;;;;;2.97;1.10;;;21.00;99.90;;;;;;5015698;28;20022;-84
2021/05/10 10:31:31;;;;;;;7.28;1.10;;;21.20;99.90;;;;;;5015438;28;20049;-83
2021/05/10 10:34:29;;;;;;;3.85;1.20;;;21.30;99.90;;;;;;5015429;28;20113;-84
2021/05/10 10:37:01;;;;;;;2.55;0.93;;;21.60;99.90;;;;;;5015422;28;20030;-84
2021/05/10 10:39:28;;;;;;;9.50;1.20;;;21.80;99.90;;;;;;5015311;28;20026;-84
2021/05/10 10:42:06;;;;;;;3.88;0.85;;;21.90;99.90;;;;;;5015204;28;20038;-84
2021/05/10 10:44:46;;;;;;;5.10;1.10;;;21.80;99.90;;;;;;5015301;28;20026;-84
2021/05/10 10:47:55;;;;;;;5.13;1.27;;;21.50;99.90;;;;;;5015361;28;20029;-83
2021/05/10 10:50:24;;;;;;;4.60;0.90;;;21.50;99.90;;;;;;5056147;28;20028;-84
2021/05/10 10:52:52;;;;;;;9.68;1.30;;;21.50;99.90;;;;;;5038139;28;20439;-85
2021/05/10 10:55:41;;;;;;;4.85;0.93;;;21.50;99.90;;;;;;5056310;28;20098;-84
2021/05/10 10:58:21;;;;;;;4.07;0.75;;;21.60;99.90;;;;;;5056294;28;20075;-84
2021/05/10 11:01:13;;;;;;;4.75;1.00;;;21.30;99.90;;;;;;5037986;28;20029;-84
2021/05/10 11:03:39;;;;;;;4.63;0.90;;;21.00;99.90;;;;;;5055896;28;20381;-84
2021/05/10 11:06:06;;;;;;;3.67;0.90;;;20.90;99.90;;;;;;5056113;28;20472;-84
2021/05/10 11:08:55;;;;;;;4.25;1.02;;;20.60;99.90;;;;;;5055838;28;20017;-85
2021/05/10 11:11:27;;;;;;;7.07;1.00;;;20.40;99.90;;;;;;5037876;28;20028;-85
2021/05/10 11:13:53;;;;;;;5.15;1.15;;;20.40;99.90;;;;;;5055700;28;20035;-84
2021/05/10 11:16:42;;;;;;;3.13;0.90;;;20.20;99.90;;;;;;5037734;28;20029;-85
2021/05/10 11:19:27;;;;;;;5.93;0.90;;;20.00;99.90;;;;;;5037784;28;20393;-85
2021/05/10 11:21:53;;;;;;;2.72;0.90;;;19.80;99.90;;;;;;5037863;28;20086;-85
2021/05/10 11:24:45;;;;;;;1.90;0.90;;;19.70;99.90;;;;;;5037598;28;20033;-84
2021/05/10 11:27:29;;;;;;;6.68;0.90;;;19.50;99.90;;;;;;5035352;28;20448;-85
2021/05/10 11:29:56;;;;;;;2.90;0.80;;;19.40;99.90;;;;;;5037615;28;20021;-85
2021/05/10 11:32:27;;;;;;;1.58;0.80;;;19.40;99.90;;;;;;5037397;28;20086;-84
2021/05/10 11:34:53;;;;;;;4.60;0.88;;;19.40;99.90;;;;;;5055425;28;20476;-83
2021/05/10 11:37:28;;;;;;;4.82;0.93;;;19.30;99.90;;;;;;5037415;28;20080;-84
2021/05/10 11:39:57;;;;;;;1.55;0.73;;;19.20;99.90;;;;;;5037337;28;20388;-84
2021/05/10 11:42:29;;;;;;;5.25;0.80;;;19.20;99.90;;;;;;5037224;28;20029;-84
2021/05/10 11:44:57;;;;;;;4.93;1.02;;;19.30;99.90;;;;;;5055175;28;20139;-85
2021/05/10 11:47:23;;;;;;;3.42;0.95;;;19.40;99.90;;;;;;5037233;28;20021;-84
2021/05/10 11:49:53;;;;;;;3.03;1.05;;;19.40;99.90;;;;;;5037128;28;20033;-83
2021/05/10 11:52:26;;;;;;;2.67;0.93;;;19.30;99.90;;;;;;5054957;28;20070;-83
2021/05/10 11:54:54;;;;;;;3.72;0.80;;;19.30;99.90;;;;;;5037056;28;20029;-84
2021/05/10 11:57:42;;;;;;;2.40;0.70;;;19.30;99.90;;;;;;5055143;28;20048;-84
2021/05/10 12:00:15;;;;;;;7.13;1.00;;;19.40;99.90;;;;;;5037754;28;20025;-83
2021/05/10 12:02:43;;;;;;;2.00;0.90;;;19.30;99.90;;;;;;5054762;28;20056;-83
2021/05/10 12:05:10;;;;;;;2.92;0.90;;;19.30;99.90;;;;;;5036845;28;20017;-84
2021/05/10 12:07:37;;;;;;;1.35;0.80;;;19.30;99.90;;;;;;5036784;28;20074;-83
2021/05/10 12:10:07;;;;;;;2.05;0.70;;;19.30;99.90;;;;;;5054620;28;20021;-83
2021/05/10 12:12:38;;;;;;;2.92;0.90;;;19.20;99.90;;;;;;5054548;28;20025;-84
2021/05/10 12:15:27;;;;;;;4.90;1.00;;;19.10;99.90;;;;;;5035776;28;20506;-84
2021/05/10 12:18:04;;;;;;;2.60;0.80;;;19.10;99.90;;;;;;5036627;28;20021;-85
2021/05/10 12:20:31;;;;;;;2.90;0.80;;;19.00;99.90;;;;;;5036541;28;20032;-84
2021/05/10 12:23:02;;;;;;;2.42;0.80;;;18.90;99.90;;;;;;5036462;28;20032;-85
2021/05/10 12:25:32;;;;;;;4.10;0.90;;;18.80;99.90;;;;;;5036479;28;20055;-84
2021/05/10 12:27:58;;;;;;;5.20;0.95;;;18.80;99.90;;;;;;5054332;28;20017;-84
2021/05/10 12:30:32;;;;;;;1.23;0.80;;;18.80;99.90;;;;;;5036484;28;20388;-85
2021/05/10 12:33:03;;;;;;;2.50;0.75;;;18.80;99.90;;;;;;5054736;28;20384;-84
2021/05/10 12:35:35;;;;;;;3.17;0.80;;;18.80;99.90;;;;;;5036521;28;20548;-84
2021/05/10 12:38:02;;;;;;;5.55;0.77;;;18.70;99.90;;;;;;5036163;28;20025;-84
2021/05/10 12:40:40;;;;;;;3.13;0.60;;;18.60;99.90;;;;;;5054026;28;20431;-85
2021/05/10 12:43:14;;;;;;;1.05;0.40;;;18.70;99.90;;;;;;5036045;28;20025;-84
2021/05/10 12:45:45;;;;;;;1.67;0.40;;;18.70;99.90;;;;;;5036593;28;20036;-84
2021/05/10 12:48:21;;;;;;;1.67;0.40;;;18.70;99.90;;;;;;5035885;28;20136;-84
2021/05/10 12:50:55;;;;;;;2.67;0.43;;;18.70;99.90;;;;;;5053845;28;20025;-84
2021/05/10 12:53:39;;;;;;;0.40;0.25;;;18.90;99.90;;;;;;5053837;28;20480;-84
2021/05/10 12:56:13;;;;;;;2.80;0.40;;;19.00;99.90;;;;;;5035920;28;20055;-84
2021/05/10 12:58:40;;;;;;;1.55;0.50;;;19.00;99.90;;;;;;5035938;28;20017;-84
2021/05/10 13:01:19;;;;;;;0.98;0.40;;;19.10;99.90;;;;;;5053664;28;20025;-84
2021/05/10 13:03:58;;;;;;;2.88;0.20;;;19.10;99.90;;;;;;5053922;28;20148;-84